< < Back
Terminal Aerodrome Forecast


Current Version              Previous Versions:   1  2  3  4  5  6  7  8  9  

Terminal Aerodrome Forecast

491
FTUS44 KMOB 191700
TAFMOB
TAF
KMOB 191725Z 1918/2018 VRB03KT P6SM FEW025 SCT070 BKN250
     FM192100 14007KT P6SM VCTS SCT040CB
     FM200100 08004KT P6SM FEW040
     FM201500 07010KT P6SM SCT040=

Latest METAR

507
SAUS80 KWBC 192000
MTRMOB
METAR KMOB 191956Z 14005KT 10SM FEW045 FEW050 30/20 A2995 RMK AO2 SLP140
T03000200


USA.gov is the U.S. government's official web portal to all federal, state and local government web resources and services.